createdAt,value
2018-12-23T00:01:32.627Z,4.50
2018-12-23T00:04:00.107Z,6.90
2018-12-23T00:06:27.542Z,2.30
2018-12-23T00:08:54.945Z,6.57
2018-12-23T00:11:24.956Z,8.87
2018-12-23T00:13:52.399Z,7.60
2018-12-23T00:16:20.895Z,4.97
2018-12-23T00:18:48.329Z,3.83
2018-12-23T00:21:18.166Z,8.10
2018-12-23T00:23:46.094Z,4.57
2018-12-23T00:26:13.582Z,4.70
2018-12-23T00:28:43.908Z,4.23
2018-12-23T00:31:11.323Z,5.17
2018-12-23T00:33:38.742Z,5.80
2018-12-23T00:36:06.135Z,5.13
2018-12-23T00:38:33.557Z,7.77
2018-12-23T00:41:01.037Z,3.53
2018-12-23T00:43:28.435Z,5.10
2018-12-23T00:45:55.842Z,7.03
2018-12-23T00:48:23.245Z,4.77
2018-12-23T00:50:50.652Z,5.30
2018-12-23T00:53:18.071Z,5.40
2018-12-23T00:55:45.498Z,5.77
2018-12-23T00:58:12.994Z,4.50
2018-12-23T01:00:40.409Z,5.80
2018-12-23T01:03:07.845Z,10.90
2018-12-23T01:05:35.282Z,7.53
2018-12-23T01:08:02.717Z,5.70
2018-12-23T01:10:33.185Z,7.23
2018-12-23T01:13:02.257Z,5.50
2018-12-23T01:15:29.833Z,6.23
2018-12-23T01:17:57.226Z,5.87
2018-12-23T01:20:24.652Z,7.00
2018-12-23T01:22:52.081Z,8.70
2018-12-23T01:25:19.488Z,8.73
2018-12-23T01:27:46.899Z,6.93
2018-12-23T01:30:14.314Z,7.90
2018-12-23T01:32:41.717Z,6.07
2018-12-23T01:35:09.131Z,6.17
2018-12-23T01:37:36.513Z,5.97
2018-12-23T01:40:05.538Z,4.23
2018-12-23T01:46:19.918Z,7.20
2018-12-23T01:48:48.308Z,7.30
2018-12-23T10:38:57.039Z,12.50
2018-12-23T15:32:48.223Z,8.10
2018-12-23T15:35:16.589Z,6.77
2018-12-23T15:37:44.980Z,6.93
2018-12-23T15:40:13.370Z,5.37
2018-12-23T15:42:41.737Z,8.60
2018-12-23T15:45:10.132Z,5.77
2018-12-23T15:47:38.492Z,7.60
2018-12-23T15:56:45.192Z,6.10
2018-12-23T15:59:13.552Z,9.57
2018-12-23T16:01:41.958Z,8.63
2018-12-23T16:20:38.512Z,12.70
2018-12-23T16:23:06.919Z,11.23
2018-12-23T16:25:35.625Z,10.30
2018-12-23T16:28:04.012Z,13.20
2018-12-23T16:30:32.464Z,14.97
2018-12-23T16:33:00.856Z,16.97
2018-12-23T16:35:29.270Z,16.50
2018-12-23T16:37:57.680Z,15.13
2018-12-23T16:41:06.131Z,14.10
2018-12-23T16:43:34.551Z,16.33
2018-12-23T16:46:02.939Z,18.50
2018-12-23T16:48:31.334Z,18.83
2018-12-23T16:51:00.031Z,16.90
2018-12-23T17:06:55.695Z,16.03
2018-12-23T17:09:24.127Z,15.97
2018-12-23T17:47:44.832Z,25.43
